Time;durP1;ratioP1;P1;durP2;ratioP2;P2;SDS_P1;SDS_P2;PMS_P1;PMS_P2;Temp;Humidity;BMP_temperature;BMP_pressure;BME280_temperature;BME280_humidity;BME280_pressure;Samples;Min_cycle;Max_cycle;Signal;HPM_P1;HPM_P2
2022/08/28 00:00:41;;;;;;;19.83;7.97;;;;;;;18.83;78.38;96651.69;5005215;28;20053;-66
2022/08/28 00:03:10;;;;;;;22.38;7.07;;;;;;;18.70;78.68;96655.59;5004844;28;20053;-67
2022/08/28 00:05:38;;;;;;;24.08;7.25;;;;;;;19.50;78.45;96749.31;5004155;28;20081;-66
2022/08/28 00:08:06;;;;;;;25.83;7.63;;;;;;;18.92;78.00;96656.72;5003204;28;20058;-67
2022/08/28 00:10:33;;;;;;;22.40;7.65;;;;;;;19.40;78.59;96755.94;5003391;28;20061;-67
2022/08/28 00:13:00;;;;;;;28.35;7.38;;;;;;;19.38;78.92;96752.78;5004676;28;20073;-67
2022/08/28 00:15:30;;;;;;;27.52;7.75;;;;;;;19.36;78.67;96758.03;5004812;28;20054;-67
2022/08/28 00:17:57;;;;;;;25.05;7.30;;;;;;;18.97;79.31;96718.75;5004526;28;20057;-65
2022/08/28 00:20:26;;;;;;;29.90;9.02;;;;;;;19.27;79.20;96752.19;5003301;28;20088;-67
2022/08/28 00:22:54;;;;;;;24.60;7.55;;;;;;;19.24;79.76;96753.06;5004566;28;20097;-66
2022/08/28 00:25:23;;;;;;;22.88;7.60;;;;;;;19.25;79.76;96749.00;5002877;28;20053;-67
2022/08/28 00:27:52;;;;;;;18.25;7.68;;;;;;;19.15;79.79;96761.28;5003369;28;20049;-67
2022/08/28 00:30:33;;;;;;;31.05;7.82;;;;;;;19.06;80.38;96763.88;5004918;28;20049;-67
2022/08/28 00:33:22;;;;;;;20.30;6.88;;;;;;;18.22;80.09;96644.91;5016617;28;20053;-67
2022/08/28 00:35:50;;;;;;;19.17;7.13;;;;;;;18.98;80.65;96762.44;5043823;28;20067;-66
2022/08/28 00:38:18;;;;;;;27.13;8.15;;;;;;;18.83;80.83;96743.50;5042816;28;20056;-66
2022/08/28 00:40:48;;;;;;;22.17;7.13;;;;;;;18.75;81.28;96742.84;5042378;28;20565;-65
2022/08/28 00:43:44;;;;;;;21.00;7.60;;;;;;;18.84;81.81;96751.47;5044367;28;20128;-66
2022/08/28 00:46:17;;;;;;;22.85;7.90;;;;;;;18.68;82.22;96736.59;5042637;28;20068;-66
2022/08/28 00:48:44;;;;;;;18.88;7.60;;;;;;;18.84;82.74;96757.09;5042437;28;20556;-64
2022/08/28 00:54:00;;;;;;;15.32;7.80;;;;;;;18.51;82.80;96693.63;5044062;28;20072;-67
2022/08/28 00:56:33;;;;;;;19.95;8.05;;;;;;;17.97;81.99;96608.16;5043993;28;20577;-66
2022/08/28 00:59:04;;;;;;;21.60;8.35;;;;;;;18.68;82.96;96717.75;5042370;28;20056;-67
2022/08/28 01:01:31;;;;;;;24.75;8.48;;;;;;;18.52;82.89;96700.03;5043629;28;20064;-66
2022/08/28 01:03:57;;;;;;;28.13;7.78;;;;;;;18.94;81.90;96750.47;5042419;28;20072;-66
2022/08/28 01:06:24;;;;;;;21.30;8.07;;;;;;;18.75;82.14;96756.88;5042205;28;20052;-66
2022/08/28 01:08:53;;;;;;;20.45;7.07;;;;;;;18.48;82.54;96697.28;5042167;28;20569;-66
2022/08/28 01:11:20;;;;;;;22.05;7.47;;;;;;;18.69;81.85;96727.75;5042557;28;20056;-66
2022/08/28 01:13:49;;;;;;;28.02;8.15;;;;;;;18.29;82.55;96686.81;5043371;28;20052;-66
2022/08/28 01:16:18;;;;;;;24.75;7.88;;;;;;;18.65;82.93;96743.84;5042578;28;20098;-65
2022/08/28 01:18:47;;;;;;;25.83;7.80;;;;;;;18.70;83.27;96746.16;5042269;28;20053;-66
2022/08/28 01:21:24;;;;;;;16.55;7.50;;;;;;;18.75;82.77;96747.66;5044335;28;20060;-66
2022/08/28 01:23:57;;;;;;;18.45;7.90;;;;;;;18.76;82.69;96750.03;5046015;28;20440;-66
2022/08/28 01:26:28;;;;;;;26.77;7.93;;;;;;;18.70;82.86;96746.16;5047606;28;20052;-66
2022/08/28 01:28:57;;;;;;;23.00;7.70;;;;;;;18.62;83.13;96761.53;5047411;28;20064;-66
2022/08/28 01:31:26;;;;;;;19.75;7.03;;;;;;;18.57;83.25;96747.22;5046128;28;20068;-65
2022/08/28 01:33:53;;;;;;;24.88;6.78;;;;;;;18.29;84.00;96731.69;5034025;28;20120;-65
2022/08/28 01:36:20;;;;;;;20.02;8.07;;;;;;;17.42;84.29;96605.09;5027405;28;20057;-65
2022/08/28 01:38:51;;;;;;;23.15;7.38;;;;;;;17.93;85.52;96699.88;5026936;28;20057;-66
2022/08/28 01:41:19;;;;;;;21.23;7.55;;;;;;;18.29;85.99;96748.50;5025631;28;20053;-64
2022/08/28 01:43:46;;;;;;;20.33;7.30;;;;;;;18.27;85.84;96745.34;5025665;28;20049;-66
2022/08/28 01:46:13;;;;;;;27.77;7.40;;;;;;;17.95;85.89;96694.66;5026767;28;20455;-66
2022/08/28 01:48:42;;;;;;;27.92;8.38;;;;;;;18.23;85.90;96750.22;5027003;28;20122;-66
2022/08/28 01:51:11;;;;;;;19.00;7.38;;;;;;;18.01;85.41;96721.78;5026730;28;20056;-66
2022/08/28 01:53:40;;;;;;;17.98;7.47;;;;;;;18.27;84.93;96745.34;5025403;28;20061;-64
2022/08/28 01:56:13;;;;;;;21.80;7.80;;;;;;;18.27;84.96;96748.16;5025893;28;20115;-65
2022/08/28 01:58:40;;;;;;;22.10;8.02;;;;;;;17.63;84.98;96655.16;5026952;28;20054;-68
2022/08/28 02:01:12;;;;;;;22.42;8.13;;;;;;;18.33;84.54;96752.06;5025054;28;20743;-64
2022/08/28 02:03:41;;;;;;;30.35;9.15;;;;;;;18.30;85.44;96749.31;5026737;28;20495;-64
2022/08/28 02:06:09;;;;;;;20.83;7.68;;;;;;;17.80;85.85;96718.50;5025297;28;20128;-64
2022/08/28 02:08:36;;;;;;;21.50;7.90;;;;;;;18.30;86.01;96750.09;5025551;28;20058;-66
2022/08/28 02:11:06;;;;;;;20.33;7.55;;;;;;;18.22;85.58;96748.66;5026487;28;20069;-67
2022/08/28 02:13:35;;;;;;;20.58;7.65;;;;;;;18.21;85.69;96752.66;5026659;28;20065;-66
2022/08/28 02:16:04;;;;;;;27.00;7.90;;;;;;;17.42;85.60;96633.09;5026832;28;20154;-66
2022/08/28 02:18:31;;;;;;;25.92;8.00;;;;;;;18.11;86.49;96753.63;5026669;28;20056;-66
2022/08/28 02:20:58;;;;;;;17.35;7.70;;;;;;;16.92;86.66;96562.31;5024953;28;20052;-66
2022/08/28 02:23:25;;;;;;;20.98;7.50;;;;;;;17.83;86.07;96686.88;5026365;28;20057;-66
2022/08/28 02:25:52;;;;;;;21.55;7.75;;;;;;;17.93;86.20;96713.91;5025128;28;20049;-67
2022/08/28 02:28:18;;;;;;;22.80;7.88;;;;;;;15.66;85.68;96369.28;5025233;28;20302;-67
2022/08/28 02:30:45;;;;;;;25.73;9.00;;;;;;;17.83;85.65;96721.25;5026589;28;20076;-68
2022/08/28 02:33:12;;;;;;;23.08;8.43;;;;;;;18.08;85.88;96757.31;5033358;28;20056;-66
2022/08/28 02:35:41;;;;;;;21.83;8.48;;;;;;;17.98;87.77;96773.06;5044389;28;20497;-67
2022/08/28 02:38:09;;;;;;;25.13;9.15;;;;;;;17.86;89.11;96747.66;5046280;28;20048;-66
2022/08/28 02:40:37;;;;;;;30.55;9.32;;;;;;;17.81;89.87;96756.53;5044501;28;20090;-67
2022/08/28 02:43:04;;;;;;;19.52;9.30;;;;;;;17.85;89.57;96752.47;5045623;28;20504;-67
2022/08/28 02:45:32;;;;;;;34.00;9.25;;;;;;;17.87;89.40;96754.84;5044424;28;20503;-66
2022/08/28 02:48:00;;;;;;;21.58;8.68;;;;;;;17.24;88.58;96654.97;5045616;28;20590;-67
2022/08/28 02:50:28;;;;;;;27.65;8.25;;;;;;;17.88;88.91;96757.22;5044087;28;20082;-67
2022/08/28 02:52:55;;;;;;;24.63;10.00;;;;;;;17.48;88.98;96732.25;5045436;28;20049;-65
2022/08/28 02:55:23;;;;;;;28.33;7.95;;;;;;;17.40;88.61;96685.94;5045195;28;20044;-67
2022/08/28 02:57:51;;;;;;;18.23;7.55;;;;;;;17.35;87.67;96706.00;5045465;28;20048;-67
2022/08/28 03:00:23;;;;;;;26.05;8.52;;;;;;;17.17;87.38;96649.47;5045203;28;20064;-67
2022/08/28 03:02:51;;;;;;;24.48;7.93;;;;;;;17.83;88.36;96765.31;5045420;28;20543;-67
2022/08/28 03:05:21;;;;;;;20.63;7.90;;;;;;;17.83;89.13;96759.72;5045384;28;20060;-67
2022/08/28 03:07:49;;;;;;;26.00;8.50;;;;;;;17.52;88.87;96707.75;5045390;28;20060;-65
2022/08/28 03:10:17;;;;;;;14.73;7.95;;;;;;;17.51;87.95;96681.00;5044779;28;20056;-67
2022/08/28 03:12:43;;;;;;;16.02;7.80;;;;;;;18.21;87.40;96780.69;5045498;28;20053;-66
2022/08/28 03:15:11;;;;;;;23.48;8.32;;;;;;;18.11;87.19;96790.09;5045398;28;20056;-67
2022/08/28 03:17:38;;;;;;;24.25;8.23;;;;;;;17.83;87.49;96726.09;5043751;28;20053;-67
2022/08/28 03:20:10;;;;;;;25.83;7.82;;;;;;;18.06;87.72;96768.94;5044246;28;20092;-67
2022/08/28 03:25:23;;;;;;;23.60;8.35;;;;;;;18.19;86.93;96771.13;5045073;28;20052;-67
2022/08/28 03:27:51;;;;;;;25.55;9.10;;;;;;;18.07;86.56;96744.50;5044812;28;20439;-66
2022/08/28 03:30:20;;;;;;;20.83;8.57;;;;;;;18.28;85.92;96774.97;5043725;28;20060;-66
2022/08/28 03:32:47;;;;;;;27.80;8.30;;;;;;;18.32;86.12;96775.69;5040273;28;20057;-66
2022/08/28 03:35:14;;;;;;;23.05;7.97;;;;;;;18.35;85.80;96779.66;5023283;28;20069;-66
2022/08/28 03:37:41;;;;;;;21.23;8.30;;;;;;;18.01;85.92;96727.38;5025004;28;20056;-65
2022/08/28 03:40:09;;;;;;;17.77;7.78;;;;;;;18.29;85.76;96782.16;5024705;28;20073;-66
2022/08/28 03:42:36;;;;;;;25.88;8.48;;;;;;;17.88;86.17;96725.59;5023241;28;20061;-68
2022/08/28 03:45:06;;;;;;;26.25;8.07;;;;;;;18.20;85.81;96779.13;5024990;28;20057;-65
2022/08/28 03:47:38;;;;;;;26.35;8.07;;;;;;;18.03;86.35;96775.41;5024984;28;20442;-66
2022/08/28 03:50:10;;;;;;;23.50;9.93;;;;;;;18.00;87.27;96786.66;5023856;28;20049;-65
2022/08/28 03:52:38;;;;;;;27.55;8.38;;;;;;;16.75;87.15;96585.75;5023529;28;20057;-65
2022/08/28 03:55:08;;;;;;;20.38;8.13;;;;;;;18.06;87.72;96785.75;5024300;28;20057;-65
2022/08/28 03:57:36;;;;;;;23.30;8.10;;;;;;;18.04;87.68;96776.19;5024598;28;20516;-65
2022/08/28 04:00:07;;;;;;;22.50;7.47;;;;;;;17.71;87.78;96723.88;5024723;28;20423;-65
2022/08/28 04:02:33;;;;;;;26.42;8.65;;;;;;;18.10;87.74;96791.28;5024411;28;20053;-65
2022/08/28 04:05:00;;;;;;;20.23;8.43;;;;;;;18.21;87.04;96791.91;5023201;28;20057;-66
2022/08/28 04:07:27;;;;;;;29.63;10.13;;;;;;;18.22;86.27;96781.50;5023808;28;20057;-65
2022/08/28 04:09:54;;;;;;;30.30;8.45;;;;;;;18.29;85.77;96787.75;5024678;28;20551;-64
2022/08/28 04:12:20;;;;;;;24.27;8.30;;;;;;;17.81;85.75;96712.47;5024623;28;20143;-65
2022/08/28 04:14:48;;;;;;;22.92;8.98;;;;;;;18.32;85.60;96786.91;5039696;28;20056;-65
2022/08/28 04:17:15;;;;;;;28.45;8.48;;;;;;;18.36;85.91;96798.88;5024867;28;20519;-66
2022/08/28 04:19:43;;;;;;;22.38;8.02;;;;;;;18.22;85.88;96765.47;5024867;28;20143;-64
2022/08/28 04:22:10;;;;;;;27.80;8.43;;;;;;;18.55;85.30;96788.94;5024814;28;20140;-65
2022/08/28 04:24:38;;;;;;;27.88;8.43;;;;;;;18.62;85.56;96789.59;5024666;28;20496;-65
2022/08/28 04:27:04;;;;;;;27.08;8.95;;;;;;;18.75;84.69;96787.75;5023128;28;20049;-66
2022/08/28 04:29:31;;;;;;;27.55;8.15;;;;;;;18.92;83.09;96797.84;5023360;28;20120;-66
2022/08/28 04:31:58;;;;;;;27.92;9.02;;;;;;;18.65;81.87;96732.63;5024587;28;20519;-68
2022/08/28 04:34:25;;;;;;;25.50;8.68;;;;;;;19.04;81.97;96799.22;5040551;28;20266;-64
2022/08/28 04:36:52;;;;;;;27.80;8.27;;;;;;;19.05;82.03;96795.97;5042644;28;20049;-66
2022/08/28 04:39:19;;;;;;;17.80;8.02;;;;;;;19.05;81.45;96784.75;5042725;28;20056;-65
2022/08/28 04:41:46;;;;;;;27.02;8.45;;;;;;;18.38;82.16;96701.09;5044005;28;20065;-65
2022/08/28 04:44:12;;;;;;;19.48;8.05;;;;;;;19.17;81.94;96802.97;5044595;28;20056;-65
2022/08/28 04:46:39;;;;;;;27.63;8.32;;;;;;;19.02;81.40;96757.53;5044126;28;20075;-65
2022/08/28 04:49:06;;;;;;;32.33;8.35;;;;;;;19.17;80.29;96758.03;5042456;28;20054;-67
2022/08/28 04:51:33;;;;;;;20.35;8.82;;;;;;;19.10;79.83;96725.28;5043840;28;20431;-64
2022/08/28 04:54:04;;;;;;;26.17;9.60;;;;;;;19.52;78.84;96758.06;5044148;28;20056;-67
2022/08/28 04:56:31;;;;;;;25.33;7.95;;;;;;;19.67;78.78;96763.38;5045064;28;20079;-67
2022/08/28 04:59:00;;;;;;;31.15;8.48;;;;;;;20.03;78.02;96792.25;5047659;28;20052;-66
2022/08/28 05:01:26;;;;;;;34.55;9.05;;;;;;;20.16;77.39;96793.16;5047660;28;20088;-65
2022/08/28 05:03:58;;;;;;;18.65;7.95;;;;;;;20.37;76.62;96785.00;5047592;28;20061;-66
2022/08/28 05:06:27;;;;;;;27.30;8.75;;;;;;;20.57;75.48;96790.50;5046095;28;20110;-65
2022/08/28 05:08:56;;;;;;;23.90;8.15;;;;;;;20.72;74.90;96788.91;5046140;28;20129;-67
2022/08/28 05:11:24;;;;;;;26.15;8.13;;;;;;;20.64;73.97;96770.63;5047849;28;20064;-67
2022/08/28 05:14:02;;;;;;;32.08;8.07;;;;;;;20.57;74.16;96731.38;5046065;28;20044;-65
2022/08/28 05:16:31;;;;;;;29.42;9.32;;;;;;;21.03;73.21;96761.91;5047184;28;20083;-66
2022/08/28 05:18:59;;;;;;;29.88;8.23;;;;;;;21.35;72.14;96786.34;5047234;28;20374;-64
2022/08/28 05:21:27;;;;;;;22.65;7.57;;;;;;;21.54;70.92;96794.63;5045716;28;20053;-66
2022/08/28 05:23:56;;;;;;;21.08;8.02;;;;;;;21.66;70.92;96785.38;5047401;28;20052;-65
2022/08/28 05:26:23;;;;;;;29.02;8.43;;;;;;;21.77;70.40;96791.50;5045802;28;20097;-67
2022/08/28 05:28:56;;;;;;;26.15;8.00;;;;;;;20.44;68.89;96612.34;5046149;28;20057;-65
2022/08/28 05:31:25;;;;;;;24.60;8.02;;;;;;;21.73;68.24;96756.97;5046969;28;20057;-67
2022/08/28 05:33:52;;;;;;;27.30;8.18;;;;;;;22.26;67.49;96789.94;5035209;28;20414;-65
2022/08/28 05:36:21;;;;;;;43.33;14.05;;;;;;;22.16;67.65;96751.56;5025061;28;20140;-66
2022/08/28 05:38:55;;;;;;;24.08;8.13;;;;;;;22.52;67.15;96792.75;5025918;28;20056;-66
2022/08/28 05:41:25;;;;;;;38.80;10.23;;;;;;;22.67;66.91;96785.38;5025835;28;20057;-65
2022/08/28 05:43:52;;;;;;;28.83;8.27;;;;;;;22.86;66.28;96793.56;5027173;28;20107;-66
2022/08/28 05:46:21;;;;;;;40.08;8.82;;;;;;;22.80;65.91;96772.00;5026878;28;20136;-65
2022/08/28 05:48:48;;;;;;;64.72;11.63;;;;;;;22.83;64.08;96751.31;5026930;28;20134;-67
2022/08/28 05:51:19;;;;;;;40.60;10.25;;;;;;;23.24;64.17;96796.22;5026885;28;20053;-66
2022/08/28 05:53:48;;;;;;;41.60;9.45;;;;;;;23.34;62.96;96795.06;5027122;28;20081;-65
2022/08/28 05:56:21;;;;;;;23.42;7.68;;;;;;;23.55;60.36;96791.47;5026972;28;20061;-65
2022/08/28 05:58:48;;;;;;;33.72;8.15;;;;;;;23.77;60.26;96795.03;5026715;28;20435;-67
2022/08/28 06:01:27;;;;;;;36.70;8.68;;;;;;;23.93;60.49;96792.75;5025616;28;20061;-66
2022/08/28 06:03:59;;;;;;;29.38;8.90;;;;;;;24.15;60.57;96792.75;5026924;28;20053;-66
2022/08/28 06:06:28;;;;;;;35.97;8.60;;;;;;;24.33;60.08;96792.78;5026266;28;20615;-66
2022/08/28 06:08:57;;;;;;;28.33;7.53;;;;;;;24.46;60.17;96793.47;5025276;28;20772;-68
2022/08/28 06:11:27;;;;;;;22.33;8.05;;;;;;;23.98;59.24;96695.19;5026478;28;20490;-66
2022/08/28 06:14:01;;;;;;;23.52;7.38;;;;;;;24.77;57.90;96771.53;5026488;28;20159;-68
2022/08/28 06:16:30;;;;;;;24.55;8.05;;;;;;;24.62;58.16;96739.38;5026408;28;20088;-67
2022/08/28 06:18:57;;;;;;;27.75;8.27;;;;;;;24.90;58.03;96743.81;5024894;28;20061;-69
2022/08/28 06:21:24;;;;;;;24.33;8.90;;;;;;;25.50;56.87;96794.25;5026476;28;20061;-67
2022/08/28 06:23:51;;;;;;;31.20;8.65;;;;;;;25.21;56.38;96738.00;5026030;28;20496;-67
2022/08/28 06:26:18;;;;;;;28.60;9.05;;;;;;;25.83;55.94;96792.28;5025816;28;20482;-67
2022/08/28 06:28:45;;;;;;;26.58;8.85;;;;;;;25.14;54.53;96676.72;5025708;28;20058;-67
2022/08/28 06:31:12;;;;;;;26.42;9.63;;;;;;;25.28;53.09;96659.06;5024508;28;20057;-68
2022/08/28 06:33:56;;;;;;;28.88;8.27;;;;;;;26.10;52.01;96790.16;5035515;28;20053;-67
2022/08/28 06:36:26;;;;;;;26.00;9.30;;;;;;;25.57;51.56;96714.47;5044331;28;20672;-67
2022/08/28 06:38:56;;;;;;;25.77;9.05;;;;;;;26.52;52.02;96787.28;5044403;28;20056;-68
2022/08/28 06:41:26;;;;;;;21.80;8.95;;;;;;;26.81;52.72;96783.84;5044694;28;20053;-65
2022/08/28 06:43:53;;;;;;;31.58;8.93;;;;;;;26.92;49.76;96773.47;5045730;28;20067;-66
2022/08/28 06:46:21;;;;;;;31.58;8.15;;;;;;;27.21;49.86;96789.84;5044341;28;20056;-67
2022/08/28 06:48:48;;;;;;;25.80;8.00;;;;;;;27.33;49.56;96789.59;5044396;28;20106;-67
2022/08/28 06:51:15;;;;;;;33.20;8.57;;;;;;;27.44;48.35;96766.28;5045526;28;20072;-67
2022/08/28 06:53:44;;;;;;;25.42;7.45;;;;;;;26.84;48.68;96652.91;5045428;28;20071;-66
2022/08/28 06:56:16;;;;;;;24.55;8.30;;;;;;;27.84;48.51;96787.22;5045620;28;20059;-67
2022/08/28 06:58:53;;;;;;;24.65;7.88;;;;;;;27.30;46.85;96668.25;5045308;28;20063;-67
2022/08/28 07:01:29;;;;;;;33.65;9.57;;;;;;;27.38;46.95;96680.81;5045059;28;20052;-67
2022/08/28 07:03:59;;;;;;;31.35;7.57;;;;;;;27.80;46.99;96761.00;5045297;28;20096;-70
2022/08/28 07:06:29;;;;;;;33.17;8.50;;;;;;;28.12;46.41;96782.03;5044082;28;20053;-66
2022/08/28 07:08:56;;;;;;;27.30;8.88;;;;;;;28.31;45.37;96780.53;5044040;28;20438;-67
2022/08/28 07:11:26;;;;;;;20.70;8.10;;;;;;;28.47;45.67;96776.38;5045530;28;20045;-67
2022/08/28 07:13:54;;;;;;;30.08;8.05;;;;;;;28.67;45.36;96780.06;5043764;28;20068;-67
2022/08/28 07:16:24;;;;;;;25.90;7.07;;;;;;;28.81;44.46;96772.72;5045603;28;20052;-68
2022/08/28 07:18:51;;;;;;;24.38;7.43;;;;;;;28.47;44.65;96702.28;5043031;28;20117;-67
2022/08/28 07:21:19;;;;;;;20.50;7.15;;;;;;;28.40;43.70;96694.91;5044890;28;20049;-68
2022/08/28 07:23:46;;;;;;;28.95;8.07;;;;;;;28.84;44.22;96743.22;5044989;28;20184;-68
2022/08/28 07:26:17;;;;;;;27.85;7.60;;;;;;;29.15;44.83;96769.84;5043733;28;20220;-69
2022/08/28 07:28:46;;;;;;;27.08;7.95;;;;;;;29.35;43.36;96774.75;5043181;28;20079;-67
2022/08/28 07:31:16;;;;;;;29.90;7.72;;;;;;;28.93;43.59;96765.88;5044483;28;20059;-68
2022/08/28 07:33:43;;;;;;;22.45;6.95;;;;;;;28.70;43.89;96752.63;5035580;28;20057;-67
2022/08/28 07:36:13;;;;;;;26.30;8.07;;;;;;;28.86;44.55;96780.59;5024676;28;20061;-66
2022/08/28 07:38:57;;;;;;;21.83;7.15;;;;;;;29.27;42.48;96765.06;5029281;28;20661;-66
2022/08/28 07:41:30;;;;;;;24.55;6.97;;;;;;;29.63;42.77;96763.63;5023503;28;20530;-67
2022/08/28 07:46:43;;;;;;;21.40;7.15;;;;;;;29.81;44.12;96769.84;5025279;28;20053;-67
2022/08/28 07:49:11;;;;;;;19.48;7.68;;;;;;;30.11;43.79;96765.44;5024318;28;20053;-67
2022/08/28 07:51:38;;;;;;;28.25;7.55;;;;;;;30.45;42.48;96757.91;5024397;28;20049;-67
2022/08/28 07:54:04;;;;;;;28.30;7.03;;;;;;;30.26;41.99;96726.06;5023345;28;20049;-68
2022/08/28 07:56:39;;;;;;;20.33;6.78;;;;;;;30.65;41.65;96757.81;5024523;28;20061;-67
2022/08/28 07:59:08;;;;;;;20.10;6.93;;;;;;;30.84;41.68;96754.03;5023259;28;20112;-67
2022/08/28 08:01:40;;;;;;;27.00;8.10;;;;;;;30.63;42.02;96757.53;5024586;28;20057;-66
2022/08/28 08:04:11;;;;;;;29.90;8.52;;;;;;;28.79;41.59;96490.13;5024348;28;20061;-68
2022/08/28 08:06:39;;;;;;;20.25;6.63;;;;;;;30.84;41.37;96765.47;5024343;28;20057;-67
2022/08/28 08:09:08;;;;;;;28.20;7.65;;;;;;;31.00;40.75;96760.34;5023044;28;20058;-68
2022/08/28 08:11:35;;;;;;;19.55;7.22;;;;;;;31.09;39.63;96745.81;5023161;28;20076;-67
2022/08/28 08:14:04;;;;;;;18.27;7.05;;;;;;;31.15;40.32;96756.00;5024469;28;20049;-67
2022/08/28 08:16:38;;;;;;;31.58;7.25;;;;;;;31.12;40.29;96722.69;5024062;28;20108;-68
2022/08/28 08:19:08;;;;;;;21.60;7.70;;;;;;;31.23;39.01;96724.78;5022900;28;20053;-67
2022/08/28 08:21:35;;;;;;;20.70;6.93;;;;;;;31.19;38.59;96687.06;5024318;28;20416;-67
2022/08/28 08:24:03;;;;;;;22.88;7.53;;;;;;;31.87;38.90;96741.91;5023808;28;20586;-69
2022/08/28 08:26:29;;;;;;;21.10;6.95;;;;;;;31.87;38.36;96756.22;5024274;28;20064;-67
2022/08/28 08:28:57;;;;;;;19.33;6.63;;;;;;;31.71;38.51;96745.53;5024350;28;20058;-66
2022/08/28 08:31:31;;;;;;;28.27;6.93;;;;;;;31.97;37.93;96748.97;5028297;28;20049;-66
2022/08/28 08:34:01;;;;;;;20.83;6.95;;;;;;;31.92;37.92;96749.72;5039279;28;20061;-66
2022/08/28 08:36:30;;;;;;;17.42;7.07;;;;;;;32.33;37.58;96745.03;5048108;28;20077;-66
2022/08/28 08:38:58;;;;;;;23.90;7.60;;;;;;;32.00;35.94;96644.75;5048061;28;20057;-69
2022/08/28 08:41:50;;;;;;;25.13;7.10;;;;;;;32.00;37.45;96696.31;5046713;28;20056;-68
2022/08/28 08:44:37;;;;;;;25.10;7.57;;;;;;;32.37;37.37;96708.31;5047674;28;20063;-67
2022/08/28 08:47:20;;;;;;;26.73;6.68;;;;;;;32.61;36.02;96747.91;5047991;28;20076;-68
2022/08/28 08:49:53;;;;;;;18.77;6.70;;;;;;;32.51;36.95;96744.53;5047910;28;20487;-67
2022/08/28 08:52:39;;;;;;;18.42;7.43;;;;;;;32.33;37.24;96739.31;5046572;28;20056;-65
2022/08/28 08:55:26;;;;;;;22.80;7.30;;;;;;;32.20;36.71;96741.94;5046175;28;20115;-68
2022/08/28 08:58:04;;;;;;;25.13;8.52;;;;;;;32.40;36.82;96749.50;5047136;28;20090;-67
2022/08/28 09:00:36;;;;;;;21.13;7.78;;;;;;;32.66;35.57;96733.56;5047779;28;20627;-68
2022/08/28 09:03:12;;;;;;;21.30;6.95;;;;;;;32.72;34.91;96740.09;5046874;28;20053;-68
2022/08/28 09:05:45;;;;;;;24.13;7.93;;;;;;;32.34;35.04;96654.84;5045851;28;20128;-67
2022/08/28 09:08:38;;;;;;;16.77;6.65;;;;;;;32.90;34.65;96736.66;5046157;28;20060;-67
2022/08/28 09:11:28;;;;;;;20.83;7.07;;;;;;;32.75;34.63;96739.03;5047697;28;20540;-67
2022/08/28 09:14:14;;;;;;;24.05;8.30;;;;;;;32.93;34.39;96740.56;5045589;28;20059;-68
2022/08/28 09:16:45;;;;;;;19.75;6.72;;;;;;;32.85;34.86;96723.06;5047408;28;20063;-68
2022/08/28 09:19:18;;;;;;;17.85;6.65;;;;;;;33.00;34.11;96735.06;5045677;28;20053;-67
2022/08/28 09:21:47;;;;;;;21.85;7.07;;;;;;;32.98;35.09;96725.41;5047139;28;20053;-67
2022/08/28 09:24:27;;;;;;;23.77;6.65;;;;;;;33.05;33.29;96731.41;5042821;28;20061;-66
2022/08/28 09:27:00;;;;;;;20.30;6.35;;;;;;;32.48;33.07;96662.41;5046832;28;20045;-67
2022/08/28 09:29:31;;;;;;;15.02;6.38;;;;;;;32.30;33.00;96600.63;5045630;28;20068;-67
2022/08/28 09:32:16;;;;;;;17.80;6.35;;;;;;;32.79;33.25;96725.19;5045774;28;20128;-67
2022/08/28 09:35:05;;;;;;;22.05;7.20;;;;;;;32.82;33.34;96729.84;5029773;28;20062;-66
2022/08/28 09:37:33;;;;;;;17.73;6.63;;;;;;;33.20;31.62;96726.09;5025990;28;20432;-67
2022/08/28 09:40:22;;;;;;;19.35;6.60;;;;;;;33.37;32.17;96728.91;5025726;28;20060;-67
2022/08/28 09:43:27;;;;;;;18.45;6.95;;;;;;;33.63;32.38;96718.59;5024726;28;20061;-66
2022/08/28 09:46:03;;;;;;;22.73;6.78;;;;;;;34.20;31.60;96725.50;5026426;28;20049;-68
2022/08/28 09:48:38;;;;;;;20.15;7.10;;;;;;;34.20;32.84;96699.59;5025365;28;20068;-66
2022/08/28 09:51:27;;;;;;;33.05;7.22;;;;;;;34.35;32.24;96691.38;5026730;28;20487;-66
2022/08/28 09:54:04;;;;;;;18.58;7.85;;;;;;;34.73;31.11;96765.06;5026851;28;20045;-66
2022/08/28 09:56:40;;;;;;;19.83;7.20;;;;;;;33.99;32.57;96682.00;5026370;28;20054;-65
2022/08/28 09:59:10;;;;;;;19.40;6.55;;;;;;;34.32;32.83;96721.22;5024686;28;20057;-64
2022/08/28 10:01:40;;;;;;;23.55;8.90;;;;;;;33.81;32.38;96716.38;5026110;28;20045;-64
2022/08/28 10:04:30;;;;;;;;;;;;;;;33.85;32.98;96716.84;5026822;28;20084;-64
2022/08/28 10:07:17;;;;;;;22.15;7.28;;;;;;;33.74;33.36;96718.50;5023856;28;20518;-65
2022/08/28 10:10:03;;;;;;;15.60;6.53;;;;;;;33.62;33.71;96716.25;5026855;28;20060;-64
2022/08/28 10:12:50;;;;;;;17.20;6.43;;;;;;;33.28;33.29;96692.63;5024808;28;20049;-63
2022/08/28 10:15:34;;;;;;;14.32;6.05;;;;;;;33.64;32.97;96685.66;5025816;28;20119;-65
2022/08/28 10:18:51;;;;;;;16.75;6.72;;;;;;;34.06;31.91;96703.66;5024511;28;20057;-64
2022/08/28 10:21:42;;;;;;;22.55;6.68;;;;;;;34.39;31.66;96714.88;5020636;28;20068;-64
2022/08/28 10:24:34;;;;;;;21.05;6.43;;;;;;;34.78;30.96;96698.78;5025917;28;20053;-64
2022/08/28 10:27:01;;;;;;;18.10;6.60;;;;;;;34.94;30.57;96714.34;5026223;28;20061;-65
2022/08/28 10:29:44;;;;;;;21.08;6.80;;;;;;;35.12;30.34;96707.84;5026058;28;20065;-65
2022/08/28 10:32:27;;;;;;;21.40;6.38;;;;;;;34.08;30.88;96614.75;5024801;28;20511;-64
2022/08/28 10:35:32;;;;;;;20.17;6.40;;;;;;;34.50;30.90;96709.03;5043789;28;20057;-65
2022/08/28 10:38:07;;;;;;;23.98;7.60;;;;;;;34.08;32.14;96701.03;4967362;28;20472;-63
2022/08/28 10:40:39;;;;;;;19.83;6.13;;;;;;;33.58;32.90;96676.28;5036714;28;20623;-64
2022/08/28 10:43:11;;;;;;;22.33;8.23;;;;;;;33.09;33.38;96657.22;5044010;28;20189;-64
2022/08/28 10:45:40;;;;;;;18.42;6.40;;;;;;;33.12;34.14;96689.84;5045320;28;20507;-64
2022/08/28 10:48:42;;;;;;;19.02;6.18;;;;;;;33.03;34.45;96705.28;5045107;28;20063;-65
2022/08/28 10:51:34;;;;;;;18.75;6.63;;;;;;;32.83;34.39;96702.75;5027043;28;20064;-65
2022/08/28 10:54:49;;;;;;;23.60;9.98;;;;;;;32.90;34.83;96707.94;5039445;28;20084;-65
2022/08/28 10:57:41;;;;;;;19.33;7.68;;;;;;;32.84;34.96;96684.19;5043822;28;20071;-65
2022/08/28 11:00:12;;;;;;;12.55;6.50;;;;;;;32.79;35.58;96673.53;5044167;28;20460;-64
2022/08/28 11:02:43;;;;;;;19.45;7.28;;;;;;;33.06;34.84;96674.72;5045314;28;20060;-65
2022/08/28 11:05:11;;;;;;;31.48;8.00;;;;;;;33.13;35.46;96669.25;5045385;28;20061;-64
2022/08/28 11:07:46;;;;;;;22.40;7.85;;;;;;;32.73;35.09;96638.34;5045330;28;20061;-63
2022/08/28 11:10:22;;;;;;;29.85;7.72;;;;;;;33.26;34.55;96706.75;5044057;28;20060;-64
2022/08/28 11:12:51;;;;;;;21.23;7.53;;;;;;;33.68;34.57;96696.88;5045662;28;20064;-64
2022/08/28 11:15:50;;;;;;;17.27;6.70;;;;;;;33.77;33.70;96698.66;5043298;28;20065;-64
2022/08/28 11:18:52;;;;;;;20.58;7.80;;;;;;;33.91;33.48;96692.53;5043268;28;20568;-66
2022/08/28 11:21:29;;;;;;;14.90;6.95;;;;;;;33.96;33.51;96693.78;5011064;28;20053;-64
2022/08/28 11:24:06;;;;;;;23.63;7.85;;;;;;;33.55;33.51;96573.94;5042751;28;20053;-64
2022/08/28 11:27:10;;;;;;;23.27;7.25;;;;;;;34.54;32.74;96692.25;5043600;28;20273;-65
2022/08/28 11:30:09;;;;;;;20.10;7.55;;;;;;;34.36;33.14;96699.47;5043290;28;20053;-67
2022/08/28 11:32:55;;;;;;;18.83;6.68;;;;;;;33.87;32.13;96596.38;5044811;28;20584;-66
2022/08/28 11:35:39;;;;;;;19.10;6.38;;;;;;;34.32;32.61;96686.69;5006413;28;20062;-65
2022/08/28 11:38:06;;;;;;;22.92;7.38;;;;;;;33.73;33.35;96653.69;5004143;28;20060;-65
2022/08/28 11:40:49;;;;;;;19.95;7.47;;;;;;;33.94;33.17;96685.72;5005123;28;20201;-66
2022/08/28 11:43:37;;;;;;;20.83;7.30;;;;;;;34.15;33.15;96691.81;5005228;28;20119;-66
2022/08/28 11:46:15;;;;;;;15.18;7.00;;;;;;;34.44;32.94;96688.16;5004916;28;20053;-68
2022/08/28 11:48:50;;;;;;;18.42;6.47;;;;;;;34.16;31.84;96641.63;5003442;28;20092;-67
2022/08/28 11:51:17;;;;;;;19.30;7.18;;;;;;;34.43;31.77;96675.09;5003624;28;20052;-68
2022/08/28 11:53:56;;;;;;;21.20;8.77;;;;;;;34.32;32.70;96681.72;5004617;28;20059;-66
2022/08/28 11:56:26;;;;;;;21.70;7.63;;;;;;;34.25;32.57;96681.53;5003722;28;20065;-66